Time;durP1;ratioP1;P1;durP2;ratioP2;P2;SDS_P1;SDS_P2;PMS_P1;PMS_P2;Temp;Humidity;BMP_temperature;BMP_pressure;BME280_temperature;BME280_humidity;BME280_pressure;Samples;Min_cycle;Max_cycle;Signal;HPM_P1;HPM_P2
2021/11/15 00:01:15;;;;;;;89.10;53.48;;;;;;;7.02;86.51;101508.14;2802307;85;21047;-76
2021/11/15 00:05:17;;;;;;;84.17;51.37;;;;;;;7.00;86.56;101510.39;2802682;85;21031;-79
2021/11/15 00:09:19;;;;;;;106.03;52.45;;;;;;;6.99;86.51;101510.00;2802607;85;21066;-81
2021/11/15 00:13:21;;;;;;;77.75;49.45;;;;;;;7.02;86.79;101514.75;2802823;85;21384;-79
2021/11/15 00:17:23;;;;;;;91.05;50.10;;;;;;;7.07;86.93;101512.73;2802820;85;21050;-80
2021/11/15 00:21:25;;;;;;;79.42;48.38;;;;;;;7.11;86.53;101515.17;2802638;85;21035;-76
2021/11/15 00:25:27;;;;;;;77.40;49.45;;;;;;;7.16;86.82;101512.31;2802917;85;21007;-76
2021/11/15 00:29:29;;;;;;;96.20;56.35;;;;;;;7.20;86.63;101512.55;2802944;85;21047;-77
2021/11/15 00:33:31;;;;;;;96.65;51.90;;;;;;;7.27;87.06;101506.50;2803000;85;21294;-82
2021/11/15 00:37:33;;;;;;;85.65;50.12;;;;;;;7.33;86.20;101508.00;2803039;85;21023;-80
2021/11/15 00:41:35;;;;;;;86.02;50.05;;;;;;;7.34;86.24;101505.74;2802707;85;21091;-80
2021/11/15 00:45:38;;;;;;;88.07;50.43;;;;;;;7.38;86.18;101510.83;2802967;85;21023;-78
2021/11/15 00:49:40;;;;;;;83.03;50.50;;;;;;;7.39;86.05;101509.02;2802791;85;21051;-77
2021/11/15 00:53:43;;;;;;;84.65;48.70;;;;;;;7.34;85.73;101505.27;2802654;84;21070;-78
2021/11/15 00:57:45;;;;;;;86.55;52.23;;;;;;;7.29;85.89;101507.28;2775780;85;21046;-77
2021/11/15 01:01:47;;;;;;;82.25;51.35;;;;;;;7.15;86.26;101506.63;2802949;85;21015;-77
2021/11/15 01:05:48;;;;;;;84.42;50.50;;;;;;;7.13;86.94;101507.17;2802768;85;21003;-80
2021/11/15 01:09:50;;;;;;;95.35;53.23;;;;;;;7.24;87.30;101502.69;2802842;85;21022;-79
2021/11/15 01:13:52;;;;;;;84.17;51.63;;;;;;;7.39;87.05;101511.66;2802674;85;21028;-80
2021/11/15 01:17:56;;;;;;;89.22;55.83;;;;;;;7.48;86.58;101513.00;2802426;85;20968;-78
2021/11/15 01:21:57;;;;;;;91.90;52.38;;;;;;;7.55;86.21;101521.02;2802435;85;21117;-82
2021/11/15 01:25:59;;;;;;;84.37;50.12;;;;;;;7.57;86.01;101513.89;2802484;85;20995;-80
2021/11/15 01:30:01;;;;;;;78.20;48.65;;;;;;;7.65;85.85;101524.08;2802587;85;21011;-79
2021/11/15 01:34:03;;;;;;;93.55;53.63;;;;;;;7.64;85.58;101533.83;2802393;85;21024;-80
2021/11/15 01:38:05;;;;;;;90.30;56.50;;;;;;;7.57;85.18;101525.33;2802678;83;20988;-82
2021/11/15 01:42:06;;;;;;;98.92;55.38;;;;;;;7.63;85.66;101539.19;2802229;85;21247;-77
2021/11/15 01:46:08;;;;;;;85.45;51.42;;;;;;;7.68;85.54;101539.84;2802345;85;20988;-79
2021/11/15 01:50:15;;;;;;;79.65;51.00;;;;;;;7.72;85.28;101530.80;2801927;85;21050;-77
2021/11/15 01:54:15;;;;;;;84.72;53.40;;;;;;;7.78;85.45;101521.21;2805948;84;21113;-80
2021/11/15 01:58:18;;;;;;;79.15;50.85;;;;;;;7.83;84.93;101524.48;2810652;84;20967;-78
2021/11/15 02:02:25;;;;;;;84.20;50.80;;;;;;;7.83;84.64;101527.12;2812708;83;20968;-79
2021/11/15 02:06:23;;;;;;;90.72;50.25;;;;;;;7.78;84.37;101519.89;2801145;85;21055;-77
2021/11/15 02:10:25;;;;;;;84.62;54.18;;;;;;;7.75;84.48;101520.05;2802182;85;20987;-77
2021/11/15 02:14:26;;;;;;;86.30;54.05;;;;;;;7.70;84.44;101516.30;2802418;84;21063;-76
2021/11/15 02:18:28;;;;;;;82.05;50.75;;;;;;;7.67;84.70;101512.97;2802216;85;21094;-75
2021/11/15 02:22:30;;;;;;;83.30;53.75;;;;;;;7.60;84.84;101515.51;2802198;85;21011;-78
2021/11/15 02:26:31;;;;;;;83.92;51.10;;;;;;;7.58;85.13;101511.63;2802691;85;21085;-79
2021/11/15 02:30:34;;;;;;;97.50;53.70;;;;;;;7.53;85.37;101505.69;2802509;85;21043;-77
2021/11/15 02:34:36;;;;;;;92.00;53.15;;;;;;;7.52;85.53;101510.14;2802521;85;21071;-77
2021/11/15 02:38:39;;;;;;;87.50;52.48;;;;;;;7.48;85.54;101513.00;2802773;85;21078;-79
2021/11/15 02:42:41;;;;;;;84.62;54.23;;;;;;;7.47;85.68;101512.61;2802415;85;21067;-76
2021/11/15 02:46:43;;;;;;;83.20;51.10;;;;;;;7.50;85.82;101506.71;2802528;84;21129;-80
2021/11/15 02:50:45;;;;;;;80.70;51.83;;;;;;;7.51;85.79;101511.52;2802612;85;20995;-79
2021/11/15 02:54:49;;;;;;;86.65;52.10;;;;;;;7.50;85.85;101505.84;2814333;84;21094;-74
2021/11/15 02:58:50;;;;;;;97.45;55.43;;;;;;;7.51;85.92;101505.77;2823820;84;21046;-75
2021/11/15 03:02:54;;;;;;;90.67;54.23;;;;;;;7.50;86.00;101500.09;2818675;84;21090;-77
2021/11/15 03:06:55;;;;;;;87.78;52.33;;;;;;;7.45;85.97;101498.12;2815138;84;20959;-76
2021/11/15 03:11:01;;;;;;;91.05;54.55;;;;;;;7.44;86.05;101501.70;2814689;84;21704;-80
2021/11/15 03:15:04;;;;;;;82.10;51.75;;;;;;;7.43;86.21;101499.98;2814739;84;21028;-77
2021/11/15 03:19:05;;;;;;;88.07;51.63;;;;;;;7.42;86.24;101504.89;2815097;84;21057;-75
2021/11/15 03:23:15;;;;;;;90.28;54.58;;;;;;;7.42;86.42;101504.44;2815488;83;21066;-78
2021/11/15 03:27:16;;;;;;;92.82;52.78;;;;;;;7.43;86.52;101496.02;2814342;84;21046;-75
2021/11/15 03:31:27;;;;;;;98.20;54.03;;;;;;;7.41;86.58;101499.20;2815195;84;21047;-76
2021/11/15 03:35:29;;;;;;;91.05;54.13;;;;;;;7.40;86.68;101500.14;2814975;84;21055;-79
2021/11/15 03:39:31;;;;;;;86.82;53.48;;;;;;;7.33;86.72;101490.80;2815013;84;21027;-79
2021/11/15 03:43:33;;;;;;;86.92;53.25;;;;;;;7.27;86.99;101490.17;2815145;84;21059;-78
2021/11/15 03:47:36;;;;;;;86.15;53.92;;;;;;;7.25;87.19;101492.49;2815052;84;21023;-80
2021/11/15 03:51:39;;;;;;;89.25;50.63;;;;;;;7.21;87.48;101490.45;2815060;84;21046;-76
2021/11/15 03:55:42;;;;;;;84.20;51.90;;;;;;;7.20;87.71;101486.58;2799686;84;21044;-75
2021/11/15 03:59:44;;;;;;;89.50;53.15;;;;;;;7.24;87.79;101485.00;2794037;85;21047;-76
2021/11/15 04:03:47;;;;;;;93.05;57.70;;;;;;;7.25;87.86;101492.01;2793921;85;21074;-81
2021/11/15 04:07:49;;;;;;;86.95;53.90;;;;;;;7.27;87.70;101486.20;2794205;85;21051;-81
2021/11/15 04:11:51;;;;;;;105.85;55.23;;;;;;;7.27;87.74;101486.66;2793978;85;21023;-78
2021/11/15 04:15:57;;;;;;;91.00;55.67;;;;;;;7.24;87.82;101480.19;2794197;85;21658;-78
2021/11/15 04:19:59;;;;;;;85.25;52.55;;;;;;;7.22;87.92;101484.70;2794298;85;21051;-76
2021/11/15 04:24:02;;;;;;;87.00;52.75;;;;;;;7.20;87.97;101487.89;2794091;85;20984;-80
2021/11/15 04:28:04;;;;;;;91.70;54.63;;;;;;;7.18;88.01;101495.89;2794152;85;21007;-78
2021/11/15 04:32:08;;;;;;;86.12;53.98;;;;;;;7.16;88.14;101489.83;2794040;85;21024;-80
2021/11/15 04:36:10;;;;;;;94.92;55.33;;;;;;;7.15;88.07;101496.05;2793881;85;21101;-80
2021/11/15 04:40:12;;;;;;;101.35;60.35;;;;;;;7.15;88.21;101496.05;2794105;85;21698;-79
2021/11/15 04:44:14;;;;;;;104.78;62.53;;;;;;;7.13;88.32;101491.30;2794133;85;21087;-79
2021/11/15 04:48:15;;;;;;;106.05;62.45;;;;;;;7.14;88.37;101485.08;2794384;85;21312;-79
2021/11/15 04:52:17;;;;;;;97.08;61.00;;;;;;;7.15;88.39;101488.11;2794358;85;20992;-79
2021/11/15 04:56:19;;;;;;;107.58;62.20;;;;;;;7.08;88.40;101480.09;2793995;85;21008;-78
2021/11/15 05:00:25;;;;;;;108.37;65.37;;;;;;;7.09;88.47;101480.48;2794119;85;21046;-80
2021/11/15 05:04:27;;;;;;;112.20;62.27;;;;;;;7.07;88.68;101478.34;2793863;85;20988;-75
2021/11/15 05:08:29;;;;;;;102.00;62.33;;;;;;;7.04;88.77;101480.69;2794117;85;21035;-75
2021/11/15 05:12:35;;;;;;;116.90;63.60;;;;;;;7.01;88.91;101483.48;2793789;85;21059;-80
2021/11/15 05:16:34;;;;;;;109.52;65.22;;;;;;;7.02;89.07;101479.03;2793228;85;21143;-81
2021/11/15 05:20:36;;;;;;;104.17;65.15;;;;;;;6.98;89.10;101487.13;2793626;85;21059;-79
2021/11/15 05:24:37;;;;;;;101.02;61.08;;;;;;;6.93;89.31;101489.14;2793730;85;21027;-77
2021/11/15 05:28:39;;;;;;;98.60;61.75;;;;;;;6.91;89.55;101489.67;2793927;85;20980;-80
2021/11/15 05:32:42;;;;;;;116.82;64.95;;;;;;;6.86;89.82;101491.66;2793633;85;21074;-83
2021/11/15 05:36:43;;;;;;;102.55;60.73;;;;;;;6.88;89.82;101492.47;2793748;85;21606;-83
2021/11/15 05:40:45;;;;;;;99.95;62.25;;;;;;;6.88;89.89;101491.15;2793482;84;21063;-80
2021/11/15 05:44:46;;;;;;;99.67;62.00;;;;;;;6.88;90.10;101492.92;2793519;85;21059;-80
2021/11/15 05:48:48;;;;;;;93.35;60.95;;;;;;;6.86;89.97;101489.02;2793663;85;21047;-75
2021/11/15 05:52:50;;;;;;;118.55;69.87;;;;;;;6.79;90.39;101490.24;2793744;85;21043;-77
2021/11/15 05:56:52;;;;;;;208.53;109.22;;;;;;;6.75;90.69;101496.61;2793319;85;21563;-82
2021/11/15 06:00:56;;;;;;;111.17;64.30;;;;;;;6.79;90.86;101498.17;2793841;85;21004;-77
2021/11/15 06:04:57;;;;;;;104.25;62.65;;;;;;;6.76;90.65;101502.30;2793640;85;21004;-78
2021/11/15 06:08:58;;;;;;;112.03;62.62;;;;;;;6.76;90.77;101506.26;2793961;85;21084;-77
2021/11/15 06:13:00;;;;;;;96.57;58.98;;;;;;;6.72;90.88;101509.50;2793682;85;21054;-78
2021/11/15 06:17:03;;;;;;;119.35;61.00;;;;;;;6.66;91.16;101504.02;2793556;85;24399;-80
2021/11/15 06:21:05;;;;;;;96.08;56.08;;;;;;;6.67;91.29;101508.86;2793922;85;21087;-79
2021/11/15 06:25:09;;;;;;;93.15;54.95;;;;;;;6.69;91.21;101513.16;2793653;85;21024;-77
2021/11/15 06:29:11;;;;;;;105.52;58.73;;;;;;;6.68;91.31;101510.12;2793764;85;21566;-79
2021/11/15 06:33:13;;;;;;;97.37;58.10;;;;;;;6.76;91.25;101508.91;2793735;85;21138;-80
2021/11/15 06:37:15;;;;;;;94.25;57.88;;;;;;;6.80;91.00;101513.11;2793747;85;21027;-76
2021/11/15 06:41:17;;;;;;;100.20;60.85;;;;;;;6.86;90.76;101507.53;2793911;85;21001;-78
2021/11/15 06:45:19;;;;;;;93.80;55.78;;;;;;;6.87;90.61;101514.53;2793811;85;20988;-77
2021/11/15 06:49:21;;;;;;;100.55;56.88;;;;;;;6.91;90.63;101517.45;2794057;85;21074;-77
2021/11/15 06:53:23;;;;;;;90.87;53.55;;;;;;;6.94;90.39;101518.63;2772273;85;21365;-83
2021/11/15 06:57:26;;;;;;;99.70;58.05;;;;;;;6.94;90.40;101518.63;2718199;86;21326;-79
2021/11/15 07:01:28;;;;;;;87.72;53.17;;;;;;;6.99;90.33;101525.03;2716572;86;21022;-83
2021/11/15 07:05:30;;;;;;;89.85;51.05;;;;;;;7.03;90.31;101533.66;2716825;86;21320;-80
2021/11/15 07:09:31;;;;;;;86.45;52.95;;;;;;;7.04;90.09;101532.73;2716773;87;21041;-78
2021/11/15 07:13:33;;;;;;;91.57;53.95;;;;;;;7.06;90.00;101529.09;2716883;87;21037;-77
2021/11/15 07:17:35;;;;;;;87.42;55.60;;;;;;;7.06;90.06;101532.19;2716617;87;21021;-78
2021/11/15 07:21:36;;;;;;;89.92;54.65;;;;;;;7.10;90.05;101533.78;2717004;87;21060;-80
2021/11/15 07:25:38;;;;;;;89.40;49.58;;;;;;;7.11;90.13;101528.88;2716917;87;21052;-77
2021/11/15 07:29:40;;;;;;;90.47;54.45;;;;;;;7.09;89.94;101528.95;2716876;87;21010;-77
2021/11/15 07:33:42;;;;;;;89.70;53.10;;;;;;;7.08;89.72;101531.20;2716904;86;21044;-80
2021/11/15 07:37:45;;;;;;;86.57;54.25;;;;;;;7.10;89.88;101529.34;2717027;87;21013;-77
2021/11/15 07:41:47;;;;;;;94.22;54.18;;;;;;;7.08;89.98;101527.71;2717145;86;21013;-77
2021/11/15 07:45:48;;;;;;;83.67;50.50;;;;;;;7.12;89.96;101531.92;2717341;87;21029;-76
2021/11/15 07:49:50;;;;;;;90.42;53.33;;;;;;;7.04;90.16;101532.73;2717339;87;21307;-76
2021/11/15 07:53:52;;;;;;;83.00;50.43;;;;;;;7.08;90.11;101537.81;2717220;87;21028;-81
2021/11/15 07:57:56;;;;;;;93.62;52.15;;;;;;;7.09;89.83;101526.30;2811851;83;21058;-80
2021/11/15 08:01:58;;;;;;;106.97;62.10;;;;;;;7.11;89.99;101534.17;2811255;84;21047;-79
2021/11/15 08:06:00;;;;;;;111.25;70.75;;;;;;;7.16;89.77;101538.78;2811145;84;21043;-79
2021/11/15 08:10:05;;;;;;;109.40;62.65;;;;;;;7.17;90.05;101540.49;2810916;84;21019;-82
2021/11/15 08:14:07;;;;;;;86.27;52.30;;;;;;;7.23;89.84;101536.70;2810482;84;21043;-77
2021/11/15 08:18:08;;;;;;;106.97;61.83;;;;;;;7.24;89.67;101536.61;2810914;84;21050;-75
2021/11/15 08:22:10;;;;;;;89.72;52.62;;;;;;;7.27;89.72;101530.33;2810912;84;21058;-80
2021/11/15 08:26:29;;;;;;;93.82;55.60;;;;;;;7.28;89.43;101538.20;2810869;84;21137;-78
2021/11/15 08:30:32;;;;;;;84.62;53.65;;;;;;;7.34;89.35;101542.32;2811012;84;20979;-78
2021/11/15 08:34:36;;;;;;;99.90;57.35;;;;;;;7.32;89.45;101537.56;2811109;84;21078;-77
2021/11/15 08:38:51;;;;;;;106.20;56.10;;;;;;;7.40;89.63;101537.20;2810896;84;21070;-76
2021/11/15 08:42:53;;;;;;;87.08;52.85;;;;;;;7.38;88.97;101539.94;2811164;84;21062;-76
2021/11/15 08:46:57;;;;;;;85.38;50.17;;;;;;;7.46;89.22;101543.52;2810934;84;21105;-78
2021/11/15 08:50:59;;;;;;;84.62;56.65;;;;;;;7.42;89.12;101541.50;2810940;84;21035;-79
2021/11/15 08:55:00;;;;;;;84.67;53.52;;;;;;;7.52;89.24;101548.53;2811880;84;21086;-78
2021/11/15 08:59:02;;;;;;;95.25;56.60;;;;;;;7.57;88.62;101539.89;2815531;84;21019;-76
2021/11/15 09:03:04;;;;;;;90.12;57.30;;;;;;;7.60;88.37;101540.66;2815551;84;21082;-76
2021/11/15 09:07:07;;;;;;;103.12;57.30;;;;;;;7.56;88.25;101534.20;2815778;84;20967;-78
2021/11/15 09:11:10;;;;;;;104.15;54.13;;;;;;;7.53;88.38;101537.45;2815571;84;21574;-80
2021/11/15 09:15:16;;;;;;;112.12;58.30;;;;;;;7.58;88.71;101531.49;2815679;84;21039;-77
2021/11/15 09:19:20;;;;;;;78.60;51.60;;;;;;;7.63;88.78;101536.09;2815976;84;20992;-80
2021/11/15 09:23:22;;;;;;;99.20;56.85;;;;;;;7.64;87.94;101531.17;2816023;84;21067;-80
2021/11/15 09:27:26;;;;;;;84.15;53.78;;;;;;;7.70;88.31;101528.70;2815485;84;21086;-80
2021/11/15 09:31:28;;;;;;;91.78;57.00;;;;;;;7.78;88.00;101529.64;2815703;84;21035;-81
2021/11/15 09:35:29;;;;;;;93.35;54.00;;;;;;;7.82;87.38;101528.55;2815573;84;21054;-80
2021/11/15 09:39:31;;;;;;;89.58;53.65;;;;;;;7.85;87.40;101531.87;2815831;84;21039;-77
2021/11/15 09:43:36;;;;;;;83.97;54.03;;;;;;;7.92;87.52;101539.53;2824367;83;21047;-77
2021/11/15 09:47:39;;;;;;;81.45;49.83;;;;;;;7.86;86.99;101534.95;2848559;83;21453;-81
2021/11/15 09:51:48;;;;;;;83.97;54.73;;;;;;;7.94;87.35;101539.83;2848467;83;21086;-80
2021/11/15 09:55:51;;;;;;;90.30;51.25;;;;;;;7.97;86.95;101537.05;2826589;83;21094;-80
2021/11/15 09:59:53;;;;;;;74.70;47.95;;;;;;;7.99;86.69;101527.23;2817330;84;21070;-79
2021/11/15 10:03:55;;;;;;;89.70;48.58;;;;;;;8.05;86.30;101531.81;2843669;83;21035;-74
2021/11/15 10:07:58;;;;;;;87.22;47.33;;;;;;;8.09;86.18;101532.91;2843251;83;21023;-79
2021/11/15 10:12:09;;;;;;;77.65;50.55;;;;;;;8.14;86.35;101526.02;2843367;83;20970;-75
2021/11/15 10:16:16;;;;;;;77.12;45.48;;;;;;;8.11;86.23;101522.21;2843127;83;21035;-78
2021/11/15 10:20:20;;;;;;;79.50;48.20;;;;;;;8.11;85.93;101515.13;2842518;83;21039;-79
2021/11/15 10:24:36;;;;;;;68.20;46.63;;;;;;;8.19;85.98;101515.19;2843479;83;20999;-76
2021/11/15 10:28:38;;;;;;;69.30;45.70;;;;;;;8.23;85.81;101520.71;2843626;83;21006;-77
2021/11/15 10:32:43;;;;;;;69.80;46.37;;;;;;;8.29;85.23;101521.73;2843483;84;21050;-81
2021/11/15 10:36:54;;;;;;;74.70;44.60;;;;;;;8.31;84.86;101517.20;2843219;84;20996;-78
2021/11/15 10:41:18;;;;;;;77.53;48.05;;;;;;;8.36;84.89;101520.47;2843676;84;21074;-83
2021/11/15 10:45:23;;;;;;;79.12;45.50;;;;;;;8.38;84.34;101515.09;2843684;83;20980;-79
2021/11/15 10:49:25;;;;;;;80.70;45.75;;;;;;;8.37;84.26;101510.73;2843768;83;21465;-79
2021/11/15 10:53:54;;;;;;;74.80;44.80;;;;;;;8.29;84.44;101505.34;2843696;83;21031;-78
2021/11/15 10:57:48;;;;;;;77.00;46.10;;;;;;;8.36;84.47;101501.91;2834926;83;21032;-75
2021/11/15 11:01:50;;;;;;;76.75;44.53;;;;;;;8.35;84.35;101500.65;2835060;83;21067;-80
2021/11/15 11:05:55;;;;;;;63.28;43.58;;;;;;;8.34;84.40;101501.59;2835164;83;21019;-76
2021/11/15 11:10:06;;;;;;;69.25;43.45;;;;;;;8.39;83.95;101491.13;2835366;83;21087;-79
2021/11/15 11:14:18;;;;;;;70.37;44.42;;;;;;;8.38;83.73;101492.07;2834428;83;21043;-80
2021/11/15 11:26:55;;;;;;;70.00;42.78;;;;;;;8.44;83.73;101482.45;2817488;83;20112;-76
2021/11/15 11:31:00;;;;;;;61.60;40.00;;;;;;;8.41;82.97;101476.48;2834404;83;21028;-81
2021/11/15 11:35:04;;;;;;;60.93;41.00;;;;;;;8.36;83.29;101478.05;2835335;84;21060;-77
2021/11/15 11:39:09;;;;;;;63.38;40.92;;;;;;;8.27;83.03;101474.58;2835396;83;21066;-77
2021/11/15 11:43:12;;;;;;;58.45;37.95;;;;;;;8.23;83.24;101467.24;2835357;84;20995;-78
2021/11/15 11:47:17;;;;;;;64.00;43.15;;;;;;;8.20;83.58;101465.22;2835546;83;21014;-81
2021/11/15 11:51:23;;;;;;;69.58;43.87;;;;;;;8.22;83.47;101472.61;2835451;84;21016;-81
2021/11/15 11:55:27;;;;;;;64.12;41.75;;;;;;;8.18;82.99;101470.62;2836248;83;21099;-76
2021/11/15 11:59:30;;;;;;;61.37;41.35;;;;;;;8.18;83.34;101475.05;2817528;83;20960;-78
2021/11/15 12:03:33;;;;;;;79.58;45.85;;;;;;;8.22;83.93;101475.27;2843873;83;21016;-80
2021/11/15 12:08:00;;;;;;;69.00;43.65;;;;;;;8.17;84.10;101478.18;2817443;83;21004;-75
2021/11/15 12:12:00;;;;;;;73.75;44.48;;;;;;;8.17;84.17;101474.66;2814038;83;21000;-76
2021/11/15 12:16:04;;;;;;;79.53;42.03;;;;;;;8.17;84.46;101473.33;2843936;83;21042;-77
2021/11/15 12:20:08;;;;;;;72.65;46.55;;;;;;;8.17;84.39;101473.33;2843896;83;21032;-74
2021/11/15 12:24:17;;;;;;;59.95;39.45;;;;;;;8.12;84.28;101466.94;2843908;83;20972;-79
2021/11/15 12:28:30;;;;;;;66.25;43.20;;;;;;;8.17;84.53;101468.03;2843733;83;21038;-76
2021/11/15 12:32:32;;;;;;;63.25;39.40;;;;;;;8.18;84.64;101463.12;2843492;83;21087;-76
2021/11/15 12:36:41;;;;;;;69.55;43.17;;;;;;;8.19;84.86;101456.42;2843232;83;21023;-74
2021/11/15 12:40:43;;;;;;;65.67;40.67;;;;;;;8.18;84.99;101458.69;2843605;82;20996;-81
2021/11/15 12:44:44;;;;;;;82.72;46.10;;;;;;;8.17;84.59;101460.95;2843737;83;21051;-74
2021/11/15 12:48:49;;;;;;;68.00;42.50;;;;;;;8.18;84.95;101457.81;2843566;83;20957;-79
2021/11/15 12:52:59;;;;;;;68.12;43.05;;;;;;;8.19;85.00;101452.91;2843810;83;21046;-79
2021/11/15 12:57:19;;;;;;;68.80;47.67;;;;;;;8.18;84.85;101446.77;2843451;82;21079;-78
2021/11/15 13:01:25;;;;;;;77.32;45.65;;;;;;;8.18;84.87;101456.04;2843651;83;21004;-79
2021/11/15 13:05:34;;;;;;;73.10;44.05;;;;;;;8.22;85.11;101450.95;2843345;83;21286;-77
2021/11/15 13:09:38;;;;;;;72.15;43.50;;;;;;;8.25;85.23;101448.59;2843238;83;20992;-75
2021/11/15 13:13:41;;;;;;;79.25;43.52;;;;;;;8.26;85.08;101454.30;2843296;83;21103;-79
2021/11/15 13:17:43;;;;;;;67.87;43.00;;;;;;;8.26;84.60;101452.50;2843372;83;20988;-77
2021/11/15 13:21:45;;;;;;;78.90;44.95;;;;;;;8.24;84.13;101457.03;2843372;83;21054;-74
2021/11/15 13:25:47;;;;;;;65.15;42.67;;;;;;;8.24;84.48;101454.83;2843522;83;20940;-79
2021/11/15 13:29:49;;;;;;;67.15;45.78;;;;;;;8.27;84.31;101457.34;2843967;83;21054;-79
2021/11/15 13:33:51;;;;;;;79.25;49.53;;;;;;;8.30;84.08;101457.17;2844092;83;20972;-77
2021/11/15 13:38:00;;;;;;;79.95;48.17;;;;;;;8.37;83.97;101456.38;2843580;83;21047;-76
2021/11/15 13:42:04;;;;;;;76.55;48.02;;;;;;;8.39;84.22;101465.95;2843536;83;21027;-79
2021/11/15 13:46:08;;;;;;;68.33;46.88;;;;;;;8.42;83.78;101455.17;2843721;83;21055;-79
2021/11/15 13:50:10;;;;;;;78.80;46.48;;;;;;;8.40;83.79;101448.25;2843687;83;21003;-75
2021/11/15 13:54:12;;;;;;;74.47;48.48;;;;;;;8.44;83.79;101455.94;2843293;83;21007;-80
2021/11/15 13:58:15;;;;;;;88.80;49.65;;;;;;;8.44;84.02;101455.09;2837976;83;20989;-77
2021/11/15 14:02:16;;;;;;;67.97;45.38;;;;;;;8.44;83.83;101458.59;2816564;84;21078;-79
2021/11/15 14:06:18;;;;;;;92.45;48.85;;;;;;;8.48;83.54;101463.75;2834759;84;20968;-76
2021/11/15 14:10:20;;;;;;;73.28;48.95;;;;;;;8.46;83.11;101457.68;2835041;83;21039;-80
2021/11/15 14:14:21;;;;;;;67.03;44.48;;;;;;;8.50;83.61;101464.07;2835061;83;20996;-78
2021/11/15 14:18:23;;;;;;;74.07;44.13;;;;;;;8.52;83.53;101456.88;2835157;83;21327;-80
2021/11/15 14:22:25;;;;;;;80.15;51.42;;;;;;;8.48;83.39;101462.42;2834871;83;21051;-79
2021/11/15 14:26:26;;;;;;;86.25;59.40;;;;;;;8.51;83.63;101471.08;2835267;83;21000;-78
2021/11/15 14:30:28;;;;;;;98.03;61.98;;;;;;;8.55;83.58;101463.83;2835041;83;20999;-76
2021/11/15 14:34:30;;;;;;;85.35;54.67;;;;;;;8.57;83.21;101462.81;2835151;83;21039;-81
2021/11/15 14:38:32;;;;;;;86.00;52.35;;;;;;;8.54;83.30;101459.46;2835030;84;20988;-82
2021/11/15 14:42:34;;;;;;;82.72;52.10;;;;;;;8.51;83.27;101455.17;2799401;84;21043;-74
2021/11/15 14:46:36;;;;;;;128.57;78.50;;;;;;;8.52;83.54;101455.55;2822130;84;21078;-71
2021/11/15 14:50:37;;;;;;;137.32;84.97;;;;;;;8.53;83.66;101451.96;2799090;84;21022;-74
2021/11/15 14:54:39;;;;;;;96.82;58.65;;;;;;;8.57;83.47;101453.98;2796341;84;21070;-77
2021/11/15 14:58:41;;;;;;;91.32;54.90;;;;;;;8.49;83.26;101456.19;2782482;83;21074;-82
2021/11/15 15:02:42;;;;;;;99.77;65.03;;;;;;;8.48;83.50;101460.61;2789759;84;21079;-81
2021/11/15 15:06:46;;;;;;;102.65;59.33;;;;;;;8.43;83.73;101468.81;2807855;84;21058;-78
2021/11/15 15:10:47;;;;;;;84.83;54.50;;;;;;;8.39;83.91;101463.30;2808314;84;21054;-79
2021/11/15 15:14:49;;;;;;;78.20;50.12;;;;;;;8.41;83.96;101469.37;2807829;84;21413;-81
2021/11/15 15:18:50;;;;;;;87.97;51.83;;;;;;;8.40;84.11;101467.66;2807904;84;21110;-81
2021/11/15 15:22:56;;;;;;;81.10;48.05;;;;;;;8.36;84.33;101467.44;2807707;83;21035;-81
2021/11/15 15:26:57;;;;;;;77.20;45.55;;;;;;;8.34;84.48;101471.10;2832905;84;21092;-82
2021/11/15 15:31:00;;;;;;;91.57;53.17;;;;;;;8.34;84.50;101467.13;2767824;84;21099;-76
2021/11/15 15:35:04;;;;;;;75.92;49.30;;;;;;;8.35;84.72;101465.73;2795722;83;21055;-78
2021/11/15 15:39:06;;;;;;;85.03;49.42;;;;;;;8.38;84.79;101466.05;2805448;83;21058;-74
2021/11/15 15:43:08;;;;;;;87.70;49.03;;;;;;;8.37;84.77;101468.31;2837352;83;21039;-80
2021/11/15 15:47:10;;;;;;;77.15;47.17;;;;;;;8.36;84.97;101456.83;2821724;84;21076;-74
2021/11/15 15:51:11;;;;;;;79.53;46.58;;;;;;;8.35;84.95;101469.70;2785427;84;20999;-78
2021/11/15 15:55:15;;;;;;;78.60;47.30;;;;;;;8.32;85.13;101464.58;2788559;83;21011;-73
2021/11/15 15:59:19;;;;;;;82.57;49.33;;;;;;;8.32;85.36;101465.90;2773714;83;21070;-77
2021/11/15 16:03:25;;;;;;;76.15;49.42;;;;;;;8.32;85.63;101459.27;2779161;85;21034;-71
2021/11/15 16:16:12;;;;;;;78.20;45.80;;;;;;;8.21;85.46;101445.72;2773933;86;21054;-81
2021/11/15 16:20:04;;;;;;;69.58;45.43;;;;;;;8.26;85.31;101447.68;2771299;86;21043;-80
2021/11/15 16:24:06;;;;;;;72.50;45.90;;;;;;;8.23;85.43;101453.99;2774080;86;21072;-79
2021/11/15 16:28:08;;;;;;;72.47;44.88;;;;;;;8.23;85.41;101456.64;2774212;85;21054;-79
2021/11/15 16:32:09;;;;;;;70.28;45.70;;;;;;;8.21;85.42;101453.22;2774169;86;21030;-79
2021/11/15 16:36:11;;;;;;;77.70;47.80;;;;;;;8.22;85.25;101443.45;2774077;86;21079;-82
2021/11/15 16:40:13;;;;;;;110.92;61.15;;;;;;;8.18;85.32;101440.13;2774035;86;21555;-83
2021/11/15 16:44:18;;;;;;;121.05;62.75;;;;;;;8.21;85.28;101445.27;2773680;86;21101;-80
2021/11/15 16:48:19;;;;;;;156.15;84.03;;;;;;;8.25;85.40;101448.59;2773731;86;21034;-81
2021/11/15 16:52:21;;;;;;;140.68;80.30;;;;;;;8.26;85.45;101449.00;2773761;86;21026;-79
2021/11/15 16:56:26;;;;;;;117.40;65.57;;;;;;;8.26;85.50;101439.23;2773894;86;21086;-79
2021/11/15 17:00:31;;;;;;;79.47;54.18;;;;;;;8.27;85.59;101439.63;2797720;85;21109;-77
2021/11/15 17:04:33;;;;;;;89.83;56.18;;;;;;;8.30;85.48;101442.59;2798297;85;21106;-83
2021/11/15 17:08:36;;;;;;;77.22;47.60;;;;;;;8.25;85.54;101449.46;2798459;85;21004;-76
2021/11/15 17:12:39;;;;;;;83.90;49.48;;;;;;;8.23;85.40;101447.81;2798608;85;21301;-77
2021/11/15 17:16:41;;;;;;;74.53;47.20;;;;;;;8.27;85.47;101446.73;2798271;85;21031;-74
2021/11/15 17:20:47;;;;;;;72.50;40.50;;;;;;;8.28;85.52;101452.42;2796810;83;21011;-74
2021/11/15 17:24:48;;;;;;;64.95;42.55;;;;;;;8.28;85.26;101443.15;2797823;85;21031;-75
2021/11/15 17:28:53;;;;;;;61.98;39.85;;;;;;;8.33;85.33;101445.08;2797566;85;21054;-75
2021/11/15 17:32:56;;;;;;;57.40;36.80;;;;;;;8.33;85.20;101438.45;2797002;85;20984;-74
2021/11/15 17:36:58;;;;;;;58.48;40.98;;;;;;;8.24;85.27;101438.47;2797422;84;21117;-75
2021/11/15 17:41:00;;;;;;;66.28;42.65;;;;;;;8.28;85.46;101443.15;2797478;85;21035;-74
2021/11/15 17:45:03;;;;;;;57.33;39.18;;;;;;;8.25;85.72;101437.98;2797396;85;21035;-75
2021/11/15 17:49:06;;;;;;;53.83;36.35;;;;;;;8.22;85.62;101441.67;2797407;85;21101;-75
2021/11/15 17:53:12;;;;;;;58.17;40.52;;;;;;;8.24;85.87;101443.77;2797630;85;21003;-74
2021/11/15 17:57:15;;;;;;;85.75;50.52;;;;;;;8.24;85.99;101441.58;2810158;83;21015;-76
2021/11/15 18:01:20;;;;;;;59.88;43.30;;;;;;;8.20;86.14;101442.69;2818160;84;21061;-74
2021/11/15 18:05:22;;;;;;;68.70;44.85;;;;;;;8.17;86.28;101433.58;2818783;84;21109;-73
2021/11/15 18:09:24;;;;;;;96.17;56.00;;;;;;;8.10;86.49;101435.23;2817947;84;21236;-73
2021/11/15 18:13:25;;;;;;;90.28;52.80;;;;;;;8.14;86.71;101433.27;2818252;84;21128;-74
2021/11/15 18:17:28;;;;;;;76.07;45.45;;;;;;;8.12;86.81;101428.06;2818363;84;21030;-74
2021/11/15 18:21:31;;;;;;;62.98;39.42;;;;;;;8.15;86.85;101433.19;2818881;84;21085;-73
2021/11/15 18:25:33;;;;;;;59.10;39.63;;;;;;;8.14;87.09;101427.50;2816275;83;21053;-74
2021/11/15 18:29:37;;;;;;;58.30;37.42;;;;;;;8.13;86.94;101434.20;2789508;85;21070;-75
2021/11/15 18:33:38;;;;;;;54.15;34.60;;;;;;;8.14;86.99;101427.50;2789681;85;21047;-73
2021/11/15 18:37:41;;;;;;;71.15;41.15;;;;;;;8.14;86.98;101424.86;2789470;85;21103;-74
2021/11/15 18:41:43;;;;;;;56.77;36.88;;;;;;;8.19;87.02;101437.00;2789626;85;21070;-73
2021/11/15 18:45:44;;;;;;;62.98;36.58;;;;;;;8.17;86.93;101424.30;2789466;85;21006;-74
2021/11/15 18:49:48;;;;;;;62.48;35.63;;;;;;;8.17;86.98;101423.84;2823094;83;20954;-73
2021/11/15 18:53:55;;;;;;;109.97;59.77;;;;;;;8.14;86.93;101423.53;2768499;85;21558;-74